Time;durP1;ratioP1;P1;durP2;ratioP2;P2;SDS_P1;SDS_P2;PMS_P1;PMS_P2;Temp;Humidity;BMP_temperature;BMP_pressure;BME280_temperature;BME280_humidity;BME280_pressure;Samples;Min_cycle;Max_cycle;Signal;HPM_P1;HPM_P2
2023/11/13 00:01:06;;;;;;;45.38;27.20;;;;;;;4.70;100.00;100697.81;10371360;28;20088;-70
2023/11/13 00:06:07;;;;;;;37.17;27.77;;;;;;;4.73;100.00;100670.66;10370102;28;20033;-70
2023/11/13 00:11:07;;;;;;;42.88;29.92;;;;;;;4.68;100.00;100648.84;10369205;28;20065;-69
2023/11/13 00:16:08;;;;;;;36.10;27.48;;;;;;;4.77;100.00;100661.25;10369226;28;20107;-70
2023/11/13 00:21:08;;;;;;;39.67;27.15;;;;;;;4.81;100.00;100665.28;10376607;28;20112;-70
2023/11/13 00:26:12;;;;;;;39.60;26.23;;;;;;;4.86;100.00;100672.84;10378834;28;20392;-71
2023/11/13 00:31:13;;;;;;;30.52;23.52;;;;;;;4.81;100.00;100654.56;10378628;28;20041;-70
2023/11/13 00:36:13;;;;;;;30.23;24.67;;;;;;;4.76;100.00;100638.13;10378245;28;20034;-70
2023/11/13 00:41:14;;;;;;;34.55;25.75;;;;;;;4.78;100.00;100640.63;10377896;28;20034;-69
2023/11/13 00:46:14;;;;;;;32.80;22.60;;;;;;;4.84;100.00;100630.06;10360038;28;20041;-71
2023/11/13 00:51:14;;;;;;;32.08;21.35;;;;;;;4.88;100.00;100618.03;10378034;28;20058;-70
2023/11/13 00:56:16;;;;;;;30.60;23.58;;;;;;;4.90;100.00;100616.00;10380811;28;20062;-70
2023/11/13 01:01:16;;;;;;;24.73;21.65;;;;;;;4.97;100.00;100612.66;10380527;28;20196;-70
2023/11/13 01:06:17;;;;;;;33.03;22.45;;;;;;;5.08;100.00;100626.56;10379613;28;20037;-69
2023/11/13 01:11:18;;;;;;;35.50;23.08;;;;;;;5.13;100.00;100610.78;10360102;28;20133;-70
2023/11/13 01:16:21;;;;;;;28.75;22.17;;;;;;;5.28;100.00;100626.22;10360585;28;20030;-69
2023/11/13 01:21:22;;;;;;;25.65;21.55;;;;;;;5.37;100.00;100617.16;10391895;28;20113;-71
2023/11/13 01:26:22;;;;;;;23.25;20.75;;;;;;;5.40;100.00;100619.50;10376718;28;20037;-70
2023/11/13 01:31:22;;;;;;;26.95;20.80;;;;;;;5.38;100.00;100609.91;10374411;28;20113;-69
2023/11/13 01:36:23;;;;;;;29.50;22.70;;;;;;;5.51;100.00;100627.16;10375297;28;20381;-70
2023/11/13 01:41:23;;;;;;;28.33;19.63;;;;;;;5.63;100.00;100618.75;10375388;28;20030;-69
2023/11/13 01:46:24;;;;;;;25.65;19.58;;;;;;;5.65;100.00;100622.97;10375372;28;20042;-69
2023/11/13 01:51:25;;;;;;;23.15;18.40;;;;;;;5.74;100.00;100615.69;10375158;28;20466;-69
2023/11/13 01:56:26;;;;;;;19.35;16.95;;;;;;;5.79;100.00;100595.38;10373932;28;20045;-70
2023/11/13 02:01:26;;;;;;;24.45;19.70;;;;;;;5.83;100.00;100585.09;10374134;28;20034;-70
2023/11/13 02:06:27;;;;;;;26.38;20.13;;;;;;;5.89;100.00;100570.13;10373508;28;20136;-69
2023/11/13 02:11:28;;;;;;;22.00;18.48;;;;;;;5.90;100.00;100571.81;10374363;28;20485;-70
2023/11/13 02:16:28;;;;;;;26.63;17.98;;;;;;;5.93;100.00;100566.09;10373336;28;20095;-70
2023/11/13 02:21:29;;;;;;;22.73;16.13;;;;;;;6.01;100.00;100548.09;10373342;28;20104;-70
2023/11/13 02:26:29;;;;;;;22.55;15.95;;;;;;;6.04;100.00;100522.72;10373906;28;20061;-69
2023/11/13 02:31:30;;;;;;;17.13;14.77;;;;;;;6.09;100.00;100523.00;10374751;28;20030;-69
2023/11/13 02:36:30;;;;;;;17.42;15.55;;;;;;;6.17;100.00;100530.19;10373545;28;20033;-70
2023/11/13 02:41:30;;;;;;;22.33;16.27;;;;;;;6.25;100.00;100549.81;10373327;28;20069;-70
2023/11/13 02:46:31;;;;;;;19.65;15.52;;;;;;;6.28;100.00;100565.56;10372698;28;20430;-70
2023/11/13 02:51:31;;;;;;;20.55;15.90;;;;;;;6.36;100.00;100562.00;10373029;28;20065;-69
2023/11/13 02:56:32;;;;;;;17.73;15.30;;;;;;;6.41;100.00;100569.53;10372650;28;20128;-70
2023/11/13 03:01:32;;;;;;;18.10;14.20;;;;;;;6.49;100.00;100573.00;10371754;28;20041;-70
2023/11/13 03:06:33;;;;;;;20.13;16.85;;;;;;;6.56;100.00;100578.50;10373892;28;20049;-69
2023/11/13 03:11:34;;;;;;;24.30;14.13;;;;;;;6.62;100.00;100577.78;10372100;28;20044;-71
2023/11/13 03:16:34;;;;;;;18.60;14.88;;;;;;;6.70;100.00;100553.53;10374260;28;20474;-70
2023/11/13 03:21:35;;;;;;;18.05;13.32;;;;;;;6.72;100.00;100531.81;10371834;28;20073;-70
2023/11/13 03:26:35;;;;;;;18.17;14.80;;;;;;;6.77;100.00;100533.97;10370345;28;20042;-69
2023/11/13 03:31:36;;;;;;;21.85;15.38;;;;;;;6.79;100.00;100548.88;10372531;28;20120;-70
2023/11/13 03:36:36;;;;;;;18.80;15.80;;;;;;;6.81;100.00;100546.84;10386468;28;20485;-70
2023/11/13 03:41:37;;;;;;;16.38;14.02;;;;;;;6.92;100.00;100559.03;10371536;28;20061;-70
2023/11/13 03:46:37;;;;;;;18.58;13.20;;;;;;;6.91;100.00;100543.91;10370718;28;20520;-70
2023/11/13 03:51:38;;;;;;;19.88;14.90;;;;;;;6.99;100.00;100533.09;10369346;28;20030;-70
2023/11/13 03:56:38;;;;;;;21.10;14.98;;;;;;;6.98;100.00;100513.38;10369615;28;20076;-71
2023/11/13 04:01:38;;;;;;;23.30;17.83;;;;;;;6.99;100.00;100488.16;10370926;28;20080;-70
2023/11/13 04:06:39;;;;;;;19.17;17.25;;;;;;;7.01;100.00;100466.41;10371361;28;20077;-71
2023/11/13 04:11:39;;;;;;;22.63;17.33;;;;;;;6.95;100.00;100449.13;10370899;28;20148;-70
2023/11/13 04:16:40;;;;;;;19.83;15.48;;;;;;;7.01;100.00;100444.03;10371245;28;20169;-70
2023/11/13 04:21:40;;;;;;;23.70;18.88;;;;;;;6.98;100.00;100429.09;10370733;28;20128;-69
2023/11/13 04:26:40;;;;;;;24.88;17.83;;;;;;;6.95;100.00;100430.28;10371221;28;20357;-70
2023/11/13 04:31:41;;;;;;;42.75;24.05;;;;;;;7.05;100.00;100426.50;10369636;28;20382;-70
2023/11/13 04:36:41;;;;;;;22.17;18.30;;;;;;;7.14;100.00;100412.75;10370744;28;20034;-70
2023/11/13 04:41:43;;;;;;;26.25;20.15;;;;;;;7.22;100.00;100412.66;10369884;28;20392;-70
2023/11/13 04:46:43;;;;;;;30.80;20.05;;;;;;;7.30;100.00;100400.09;10370013;28;20382;-70
2023/11/13 04:51:44;;;;;;;35.05;19.60;;;;;;;7.33;100.00;100397.03;10384943;28;20061;-70
2023/11/13 04:56:44;;;;;;;27.70;20.80;;;;;;;7.40;100.00;100387.16;10369393;28;20061;-70
2023/11/13 05:01:47;;;;;;;38.95;22.75;;;;;;;7.44;100.00;100381.22;10368995;28;20472;-70
2023/11/13 05:06:47;;;;;;;40.83;24.80;;;;;;;7.53;100.00;100398.13;10375687;28;20068;-70
2023/11/13 05:11:48;;;;;;;48.05;22.88;;;;;;;7.57;100.00;100401.25;10376376;28;20120;-70
2023/11/13 05:16:48;;;;;;;36.85;22.02;;;;;;;7.62;100.00;100391.56;10377944;28;20034;-70
2023/11/13 05:21:49;;;;;;;70.85;27.17;;;;;;;7.66;100.00;100384.78;10376885;28;20125;-70
2023/11/13 05:26:51;;;;;;;60.00;23.63;;;;;;;7.73;100.00;100378.63;10358740;28;20069;-70
2023/11/13 05:31:52;;;;;;;51.78;22.77;;;;;;;7.80;100.00;100376.84;10375553;28;20383;-70
2023/11/13 05:36:53;;;;;;;39.05;23.52;;;;;;;7.83;100.00;100376.44;10376141;28;20080;-71
2023/11/13 05:41:53;;;;;;;75.63;26.00;;;;;;;7.86;100.00;100360.72;10375151;28;20525;-70
2023/11/13 05:46:54;;;;;;;60.40;24.98;;;;;;;7.93;100.00;100350.81;10375704;28;20034;-70
2023/11/13 05:51:55;;;;;;;32.25;23.25;;;;;;;8.00;100.00;100353.56;10374654;28;20113;-71
2023/11/13 05:56:55;;;;;;;58.15;22.45;;;;;;;8.03;100.00;100347.78;10390340;28;20054;-70
2023/11/13 06:01:56;;;;;;;1.50;1.50;;;;;;;8.04;100.00;100338.69;10375612;28;20073;-69
2023/11/13 06:06:56;;;;;;;1.33;1.33;;;;;;;7.98;100.00;100331.38;10375279;28;20547;-69
2023/11/13 06:11:57;;;;;;;22.88;2.85;;;;;;;7.98;100.00;100326.00;10374904;28;20421;-70
2023/11/13 06:16:57;;;;;;;0.77;0.77;;;;;;;8.07;100.00;100327.53;10374381;28;20110;-70
2023/11/13 06:21:58;;;;;;;2.88;2.67;;;;;;;8.13;100.00;100307.00;10372972;28;20492;-71
2023/11/13 06:26:59;;;;;;;1.15;1.15;;;;;;;8.21;100.00;100306.03;10374472;28;20030;-70
2023/11/13 06:32:01;;;;;;;1.42;1.42;;;;;;;8.31;100.00;100301.13;10372155;28;20573;-70
2023/11/13 06:37:01;;;;;;;1.38;1.38;;;;;;;8.41;100.00;100300.81;10375098;28;20118;-71
2023/11/13 06:42:02;;;;;;;2.03;1.98;;;;;;;8.47;100.00;100278.44;10375149;28;20523;-70
2023/11/13 06:47:03;;;;;;;0.77;0.77;;;;;;;8.55;100.00;100283.66;10373972;28;20116;-72
2023/11/13 06:52:08;;;;;;;1.05;1.05;;;;;;;8.70;100.00;100272.72;10373147;28;20343;-71
2023/11/13 06:57:09;;;;;;;1.48;1.38;;;;;;;8.79;100.00;100263.44;10374564;28;20054;-71
2023/11/13 07:02:10;;;;;;;0.57;0.57;;;;;;;8.87;100.00;100254.31;10372306;28;20072;-71
2023/11/13 07:07:11;;;;;;;0.77;0.77;;;;;;;8.97;100.00;100249.38;10371564;28;20038;-72
2023/11/13 07:12:13;;;;;;;1.38;1.38;;;;;;;9.08;100.00;100254.19;10371973;28;20092;-71
2023/11/13 07:17:14;;;;;;;0.57;0.57;;;;;;;9.14;100.00;100239.03;10371683;28;20512;-71
2023/11/13 07:22:14;;;;;;;1.48;1.48;;;;;;;9.29;100.00;100240.53;10371249;28;20195;-71
2023/11/13 07:27:15;;;;;;;3.85;3.65;;;;;;;9.37;100.00;100228.66;10371951;28;20041;-71
2023/11/13 07:32:15;;;;;;;0.95;0.95;;;;;;;9.43;100.00;100227.84;10370346;28;20642;-72
2023/11/13 07:37:17;;;;;;;0.77;0.77;;;;;;;9.47;100.00;100217.44;10369918;28;20435;-71
2023/11/13 07:42:18;;;;;;;0.70;0.70;;;;;;;9.57;100.00;100200.81;10371109;28;20034;-72
2023/11/13 07:47:18;;;;;;;0.50;0.50;;;;;;;9.65;100.00;100187.94;10370897;28;20025;-71
2023/11/13 07:52:19;;;;;;;0.93;0.93;;;;;;;9.75;100.00;100177.53;10370526;28;20140;-72
2023/11/13 07:57:19;;;;;;;0.70;0.70;;;;;;;9.90;100.00;100160.25;10369625;28;20069;-73
2023/11/13 08:02:20;;;;;;;1.65;1.55;;;;;;;9.91;100.00;100145.69;10353350;28;20073;-72
2023/11/13 08:07:21;;;;;;;0.95;0.95;;;;;;;9.93;100.00;100144.44;10372023;28;20170;-72
2023/11/13 08:12:23;;;;;;;0.50;0.50;;;;;;;10.03;100.00;100130.47;10369485;28;20462;-71
2023/11/13 08:17:24;;;;;;;1.08;1.08;;;;;;;10.02;100.00;100097.19;10370912;28;20411;-71
2023/11/13 08:22:24;;;;;;;2.25;2.15;;;;;;;10.06;100.00;100097.56;10369314;28;20149;-72
2023/11/13 08:27:25;;;;;;;2.13;2.05;;;;;;;9.98;100.00;100081.56;10351987;28;20066;-71
2023/11/13 08:32:26;;;;;;;1.08;1.08;;;;;;;9.97;100.00;100061.00;10369622;28;20168;-71
2023/11/13 08:37:27;;;;;;;3.40;3.30;;;;;;;9.98;100.00;100068.88;10370428;28;20408;-72
2023/11/13 08:42:27;;;;;;;1.20;1.20;;;;;;;9.96;100.00;100049.34;10359398;28;20030;-72
2023/11/13 08:47:28;;;;;;;1.35;1.35;;;;;;;9.94;100.00;100046.00;10377976;28;20038;-71
2023/11/13 08:52:28;;;;;;;3.95;2.63;;;;;;;9.90;100.00;100033.97;10377639;28;20086;-72
2023/11/13 08:57:29;;;;;;;0.93;0.93;;;;;;;9.77;100.00;100023.22;10378897;28;20045;-71
2023/11/13 09:02:30;;;;;;;0.60;0.60;;;;;;;9.81;100.00;99996.56;10376707;28;20377;-71
2023/11/13 09:07:31;;;;;;;0.50;0.50;;;;;;;9.79;100.00;99980.53;10375342;28;20034;-72
2023/11/13 09:12:31;;;;;;;1.88;1.77;;;;;;;9.64;100.00;99980.00;10375594;28;20461;-71
2023/11/13 09:17:32;;;;;;;7.10;3.83;;;;;;;9.60;100.00;99957.13;10376157;28;20041;-71
2023/11/13 09:22:33;;;;;;;0.63;0.63;;;;;;;9.60;100.00;99949.84;10376142;28;20106;-72
2023/11/13 09:27:34;;;;;;;0.50;0.50;;;;;;;9.52;100.00;99934.72;10375325;28;20044;-71
2023/11/13 09:32:36;;;;;;;0.50;0.50;;;;;;;9.50;100.00;99925.97;10377224;28;20041;-71
2023/11/13 09:37:40;;;;;;;0.40;0.40;;;;;;;9.48;100.00;99906.47;10376484;28;20034;-71
2023/11/13 09:42:50;;;;;;;0.50;0.50;;;;;;;9.48;100.00;99901.06;10376054;28;20041;-71
2023/11/13 09:47:56;;;;;;;0.60;0.60;;;;;;;9.43;100.00;99875.72;10360713;28;20061;-72
2023/11/13 09:52:57;;;;;;;0.50;0.50;;;;;;;9.43;100.00;99867.63;10375632;28;20501;-71
2023/11/13 09:58:00;;;;;;;0.50;0.50;;;;;;;9.47;100.00;99856.16;10374290;28;20042;-71
2023/11/13 10:03:01;;;;;;;0.40;0.40;;;;;;;9.55;100.00;99861.31;10376577;28;20092;-72
2023/11/13 10:08:02;;;;;;;0.40;0.40;;;;;;;9.62;100.00;99842.34;10374016;28;20049;-72
2023/11/13 10:13:04;;;;;;;0.60;0.60;;;;;;;9.76;100.00;99816.06;10374965;28;20112;-72
2023/11/13 10:18:04;;;;;;;0.40;0.40;;;;;;;9.81;100.00;99793.78;10374465;28;20087;-71
2023/11/13 10:23:05;;;;;;;0.43;0.43;;;;;;;9.85;100.00;99782.28;10373333;28;20096;-72
2023/11/13 10:28:08;;;;;;;2.05;1.67;;;;;;;9.83;100.00;99768.19;10374247;28;20042;-72
2023/11/13 10:33:12;;;;;;;0.50;0.50;;;;;;;9.91;100.00;99748.97;10358236;28;20034;-72
2023/11/13 10:38:14;;;;;;;1.48;1.38;;;;;;;9.97;100.00;99734.56;10372712;28;20497;-72
2023/11/13 10:43:29;;;;;;;0.50;0.50;;;;;;;10.11;100.00;99720.91;10374261;28;20034;-72
2023/11/13 10:48:43;;;;;;;0.60;0.60;;;;;;;10.33;100.00;99708.63;10374197;28;20083;-72
2023/11/13 10:53:43;;;;;;;1.15;1.15;;;;;;;10.48;100.00;99689.31;10372777;28;20462;-72
2023/11/13 10:58:44;;;;;;;2.78;1.95;;;;;;;10.63;100.00;99651.03;10374215;28;20143;-73
2023/11/13 11:03:47;;;;;;;0.65;0.65;;;;;;;10.82;100.00;99625.56;10373714;28;20069;-73
2023/11/13 11:08:48;;;;;;;0.47;0.47;;;;;;;11.07;100.00;99611.88;10356048;28;20037;-73
2023/11/13 11:13:53;;;;;;;2.08;1.05;;;;;;;11.32;100.00;99581.84;10355680;28;20152;-73
2023/11/13 11:18:59;;;;;;;0.80;0.80;;;;;;;11.66;100.00;99592.94;10356661;28;20084;-72
2023/11/13 11:24:01;;;;;;;;;;;;;;;11.79;100.00;99579.13;10371737;28;20232;-72
2023/11/13 11:29:01;;;;;;;0.50;0.50;;;;;;;11.94;100.00;99561.56;10371669;28;19909;-72
2023/11/13 11:34:02;;;;;;;0.90;0.90;;;;;;;12.09;100.00;99546.44;10371446;28;20026;-72
2023/11/13 11:39:18;;;;;;;2.85;2.72;;;;;;;12.26;100.00;99538.34;10354382;28;20064;-72
2023/11/13 11:44:23;;;;;;;0.85;0.85;;;;;;;12.41;100.00;99535.09;10371034;28;20029;-72
2023/11/13 11:49:28;;;;;;;1.33;1.27;;;;;;;12.57;100.00;99515.31;10370584;28;20129;-72
2023/11/13 11:54:30;;;;;;;2.50;2.40;;;;;;;12.65;100.00;99524.94;10370707;28;20493;-72
2023/11/13 11:59:31;;;;;;;0.57;0.57;;;;;;;12.83;100.00;99525.75;10354720;28;20452;-72
2023/11/13 12:04:32;;;;;;;0.68;0.68;;;;;;;12.87;100.00;99532.38;10354284;28;20065;-72
2023/11/13 12:09:32;;;;;;;0.85;0.85;;;;;;;12.99;100.00;99533.13;10354251;28;20377;-72
2023/11/13 12:14:32;;;;;;;11.85;3.13;;;;;;;13.09;100.00;99519.69;10371858;28;20362;-72
2023/11/13 12:19:33;;;;;;;0.60;0.60;;;;;;;13.21;100.00;99497.88;10380650;28;20113;-72
2023/11/13 12:24:33;;;;;;;2.28;2.20;;;;;;;13.31;100.00;99497.22;10379414;28;20038;-71
2023/11/13 12:29:34;;;;;;;0.50;0.50;;;;;;;13.48;100.00;99501.53;10379364;28;20125;-72
2023/11/13 12:34:37;;;;;;;1.85;1.77;;;;;;;13.60;100.00;99498.72;10378900;28;20359;-72
2023/11/13 12:39:40;;;;;;;1.63;1.63;;;;;;;13.71;100.00;99483.34;10393642;28;20373;-73
2023/11/13 12:44:42;;;;;;;2.38;2.28;;;;;;;13.77;100.00;99497.84;10377510;28;20120;-72
2023/11/13 12:49:42;;;;;;;33.42;4.03;;;;;;;13.91;100.00;99483.59;10377402;28;20104;-72
2023/11/13 12:54:43;;;;;;;0.55;0.55;;;;;;;13.96;100.00;99482.81;10376612;28;20127;-72
2023/11/13 12:59:47;;;;;;;0.60;0.60;;;;;;;13.91;100.00;99477.31;10379186;28;20118;-72
2023/11/13 13:04:59;;;;;;;12.05;3.00;;;;;;;14.15;100.00;99494.19;10378855;28;20124;-73
2023/11/13 13:10:00;;;;;;;6.60;2.50;;;;;;;14.13;100.00;99475.38;10376980;28;20030;-72
2023/11/13 13:15:01;;;;;;;16.67;6.25;;;;;;;14.29;100.00;99475.56;10375642;28;20056;-72
2023/11/13 13:20:02;;;;;;;22.35;7.22;;;;;;;14.26;100.00;99500.56;10377437;28;20385;-72
2023/11/13 13:25:03;;;;;;;19.17;6.13;;;;;;;14.31;100.00;99462.50;10374912;28;20129;-72
2023/11/13 13:30:05;;;;;;;26.30;9.10;;;;;;;14.25;100.00;99469.81;10376184;28;20060;-72
2023/11/13 13:35:07;;;;;;;33.63;8.43;;;;;;;14.29;100.00;99472.81;10376715;28;20037;-72
2023/11/13 13:40:10;;;;;;;20.63;7.70;;;;;;;14.40;100.00;99460.97;10376140;28;20045;-72
2023/11/13 13:45:14;;;;;;;24.90;7.97;;;;;;;14.26;100.00;99470.63;10359429;28;20029;-72
2023/11/13 13:50:20;;;;;;;27.27;9.95;;;;;;;14.23;100.00;99477.44;10374185;28;20042;-72
2023/11/13 13:55:23;;;;;;;24.97;11.57;;;;;;;14.18;100.00;99490.97;10358161;28;20477;-72
2023/11/13 14:00:23;;;;;;;34.70;9.90;;;;;;;14.41;100.00;99474.31;10373249;28;20048;-72
2023/11/13 14:05:25;;;;;;;30.10;10.07;;;;;;;14.47;100.00;99488.81;10375239;28;20042;-72
2023/11/13 14:10:25;;;;;;;35.42;13.38;;;;;;;14.57;100.00;99479.94;10375388;28;20109;-72
2023/11/13 14:15:26;;;;;;;26.85;12.05;;;;;;;14.43;100.00;99495.88;10374614;28;20037;-72
2023/11/13 14:20:27;;;;;;;48.35;12.52;;;;;;;14.53;100.00;99503.34;10372774;28;20081;-72
2023/11/13 14:25:27;;;;;;;39.22;11.65;;;;;;;14.34;100.00;99509.13;10375173;28;20038;-72
2023/11/13 14:30:29;;;;;;;42.72;13.95;;;;;;;14.33;100.00;99509.38;10356982;28;20452;-73
2023/11/13 14:35:32;;;;;;;32.80;11.38;;;;;;;14.23;100.00;99514.69;10374095;28;20118;-71
2023/11/13 14:40:32;;;;;;;28.08;11.43;;;;;;;14.02;100.00;99510.94;10389136;28;20064;-71
2023/11/13 14:45:33;;;;;;;58.90;15.85;;;;;;;14.07;100.00;99503.66;10373854;28;20041;-71
2023/11/13 14:50:35;;;;;;;47.50;13.32;;;;;;;14.01;100.00;99525.59;10372736;28;20479;-71
2023/11/13 14:55:35;;;;;;;39.90;13.48;;;;;;;13.71;100.00;99524.97;10387738;28;20062;-71
2023/11/13 15:00:36;;;;;;;39.88;14.80;;;;;;;13.80;100.00;99549.03;10374086;28;20045;-72
2023/11/13 15:05:36;;;;;;;51.45;14.55;;;;;;;13.49;100.00;99543.97;10373675;28;20033;-71
2023/11/13 15:10:37;;;;;;;41.35;14.48;;;;;;;13.36;100.00;99552.47;10371336;28;20092;-72
2023/11/13 15:15:39;;;;;;;27.65;12.07;;;;;;;13.16;100.00;99569.25;10371344;28;20397;-71
2023/11/13 15:20:41;;;;;;;20.00;6.75;;;;;;;13.00;100.00;99576.34;10371327;28;20127;-71
2023/11/13 15:25:41;;;;;;;24.30;6.32;;;;;;;12.86;100.00;99580.47;10354418;28;20438;-71
2023/11/13 15:30:42;;;;;;;15.73;5.15;;;;;;;12.72;100.00;99579.09;10355872;28;20049;-71
2023/11/13 15:35:42;;;;;;;19.70;6.05;;;;;;;12.58;100.00;99586.72;10371974;28;20030;-71
2023/11/13 15:40:43;;;;;;;11.02;5.55;;;;;;;12.50;100.00;99590.63;10371954;28;20056;-72
2023/11/13 15:45:43;;;;;;;16.23;5.13;;;;;;;12.34;100.00;99602.25;10372163;28;20030;-71
2023/11/13 15:50:44;;;;;;;16.13;4.97;;;;;;;12.33;100.00;99614.19;10371008;28;20033;-71
2023/11/13 15:55:45;;;;;;;9.82;5.55;;;;;;;12.21;100.00;99622.38;10370634;28;20093;-71
2023/11/13 16:00:45;;;;;;;11.38;4.05;;;;;;;12.16;100.00;99630.41;10371706;28;20034;-71
2023/11/13 16:05:46;;;;;;;11.80;5.38;;;;;;;12.17;100.00;99647.53;10370954;28;20461;-71
2023/11/13 16:10:46;;;;;;;23.00;5.65;;;;;;;12.10;100.00;99648.47;10372563;28;20062;-71
2023/11/13 16:15:47;;;;;;;13.63;4.57;;;;;;;12.08;100.00;99634.31;10371372;28;20036;-71
2023/11/13 16:20:47;;;;;;;23.33;5.80;;;;;;;12.10;100.00;99653.91;10369525;28;20116;-71
2023/11/13 16:25:54;;;;;;;13.85;4.03;;;;;;;12.05;100.00;99658.38;10369331;28;20492;-71
2023/11/13 16:30:54;;;;;;;15.40;4.72;;;;;;;12.11;100.00;99654.72;10371683;28;20046;-71
2023/11/13 16:35:55;;;;;;;26.98;7.22;;;;;;;12.15;100.00;99680.31;10369912;28;20535;-71
2023/11/13 16:40:56;;;;;;;18.20;5.43;;;;;;;12.08;100.00;99682.31;10369009;28;20038;-71
2023/11/13 16:45:56;;;;;;;21.35;5.47;;;;;;;12.04;100.00;99692.84;10369135;28;20045;-71
2023/11/13 16:50:58;;;;;;;25.27;9.40;;;;;;;12.01;100.00;99708.75;10370217;28;20412;-71
2023/11/13 16:55:59;;;;;;;36.10;12.23;;;;;;;11.92;100.00;99715.59;10369115;28;20050;-71
2023/11/13 17:00:59;;;;;;;35.75;10.10;;;;;;;11.87;100.00;99713.59;10387926;28;20038;-71
2023/11/13 17:06:00;;;;;;;29.70;9.93;;;;;;;11.83;100.00;99712.38;10376361;28;20088;-71
2023/11/13 17:11:00;;;;;;;24.02;9.70;;;;;;;11.88;100.00;99739.66;10376345;28;20080;-72
2023/11/13 17:16:01;;;;;;;27.65;7.38;;;;;;;11.95;100.00;99748.50;10377828;28;20056;-71
2023/11/13 17:21:02;;;;;;;35.60;8.73;;;;;;;11.96;100.00;99746.63;10377732;28;20042;-71
2023/11/13 17:26:02;;;;;;;31.10;11.10;;;;;;;12.07;100.00;99746.63;10359241;28;20555;-71
2023/11/13 17:31:04;;;;;;;27.88;8.90;;;;;;;12.22;100.00;99746.16;10375756;28;20041;-71
2023/11/13 17:36:07;;;;;;;45.17;10.00;;;;;;;12.26;100.00;99750.06;10375080;28;20029;-71
2023/11/13 17:41:07;;;;;;;43.75;9.60;;;;;;;12.26;100.00;99771.78;10374397;28;20105;-71
2023/11/13 17:46:08;;;;;;;33.08;11.55;;;;;;;12.26;100.00;99774.47;10375877;28;20132;-71
2023/11/13 17:51:09;;;;;;;32.97;9.77;;;;;;;12.26;100.00;99779.09;10391087;28;20077;-71
2023/11/13 17:56:09;;;;;;;36.10;12.55;;;;;;;12.24;100.00;99786.63;10374592;28;20088;-71
2023/11/13 18:01:10;;;;;;;29.17;9.52;;;;;;;12.30;100.00;99789.22;10376691;28;20048;-71
2023/11/13 18:06:10;;;;;;;30.95;9.73;;;;;;;12.22;100.00;99776.03;10375801;28;20113;-71
2023/11/13 18:11:11;;;;;;;24.83;10.00;;;;;;;12.31;100.00;99790.88;10373917;28;20100;-71
2023/11/13 18:16:14;;;;;;;28.95;9.23;;;;;;;12.26;100.00;99790.78;10373961;28;20053;-71
2023/11/13 18:21:14;;;;;;;27.65;10.13;;;;;;;12.32;100.00;99797.97;10374844;28;20045;-71
2023/11/13 18:26:15;;;;;;;37.17;8.07;;;;;;;12.33;100.00;99796.91;10375299;28;20034;-71
2023/11/13 18:31:17;;;;;;;37.55;11.88;;;;;;;12.32;100.00;99795.25;10357422;28;20082;-71
2023/11/13 18:36:18;;;;;;;34.67;9.38;;;;;;;12.29;100.00;99787.59;10373429;28;20113;-71
2023/11/13 18:41:19;;;;;;;36.00;10.60;;;;;;;12.24;100.00;99800.19;10374860;28;20033;-71
2023/11/13 18:46:20;;;;;;;45.50;10.23;;;;;;;12.23;100.00;99795.84;10372227;28;20041;-71
2023/11/13 18:51:21;;;;;;;34.08;10.90;;;;;;;12.14;100.00;99803.50;10373838;28;20128;-71
2023/11/13 18:56:23;;;;;;;29.00;9.85;;;;;;;12.01;100.00;99811.88;10374330;28;20085;-71
2023/11/13 19:01:25;;;;;;;23.80;8.18;;;;;;;11.94;100.00;99814.69;10372142;28;20381;-71
2023/11/13 19:06:26;;;;;;;31.55;9.23;;;;;;;11.98;100.00;99826.72;10373401;28;20042;-71
2023/11/13 19:11:28;;;;;;;38.00;8.25;;;;;;;11.89;100.00;99816.44;10373163;28;20041;-71
2023/11/13 19:16:28;;;;;;;24.88;7.63;;;;;;;11.80;100.00;99827.56;10371033;28;20042;-71
2023/11/13 19:21:29;;;;;;;37.80;9.25;;;;;;;11.85;100.00;99829.66;10373239;28;20038;-71
2023/11/13 19:26:30;;;;;;;42.22;12.15;;;;;;;11.71;100.00;99828.13;10354588;28;20504;-71
2023/11/13 19:31:30;;;;;;;53.75;10.90;;;;;;;11.78;100.00;99846.00;10372263;28;20036;-71
2023/11/13 19:36:30;;;;;;;47.30;10.70;;;;;;;11.78;100.00;99856.84;10355227;28;20446;-71
2023/11/13 19:41:31;;;;;;;47.45;11.70;;;;;;;11.73;100.00;99856.69;10370694;28;20397;-71
2023/11/13 19:46:31;;;;;;;30.98;10.27;;;;;;;11.88;100.00;99875.31;10370433;28;20091;-74
2023/11/13 19:51:32;;;;;;;28.35;8.38;;;;;;;11.95;100.00;99861.63;10372393;28;20050;-72
2023/11/13 19:56:32;;;;;;;49.10;9.07;;;;;;;11.94;100.00;99889.84;10369588;28;20060;-71
2023/11/13 20:01:33;;;;;;;34.38;7.18;;;;;;;11.90;100.00;99881.34;10371360;28;20466;-71
2023/11/13 20:06:33;;;;;;;30.85;9.85;;;;;;;11.86;100.00;99901.81;10371658;28;20454;-72
2023/11/13 20:11:34;;;;;;;27.70;9.07;;;;;;;11.86;100.00;99902.63;10387637;28;20373;-71
2023/11/13 20:16:34;;;;;;;26.23;7.72;;;;;;;11.95;100.00;99913.19;10370841;28;20485;-71
2023/11/13 20:21:35;;;;;;;29.88;10.00;;;;;;;11.96;100.00;99912.13;10354209;28;20064;-71
2023/11/13 20:26:35;;;;;;;36.97;9.32;;;;;;;11.96;100.00;99907.50;10371166;28;20430;-71
2023/11/13 20:31:36;;;;;;;24.00;10.35;;;;;;;11.93;100.00;99907.16;10371027;28;20091;-71
2023/11/13 20:36:36;;;;;;;28.83;10.43;;;;;;;11.96;100.00;99901.25;10373402;28;20034;-74
2023/11/13 20:41:38;;;;;;;20.42;9.02;;;;;;;12.02;100.00;99911.19;10394430;28;20041;-71
2023/11/13 20:46:39;;;;;;;37.67;8.95;;;;;;;12.12;100.00;99910.63;10361292;28;20058;-72
2023/11/13 20:51:39;;;;;;;36.00;7.97;;;;;;;12.08;100.00;99908.38;10361983;28;20061;-72
2023/11/13 20:56:40;;;;;;;24.70;7.13;;;;;;;12.02;100.00;99897.63;10376234;28;20136;-71
2023/11/13 21:01:41;;;;;;;42.85;9.98;;;;;;;12.04;100.00;99909.91;10378857;28;20053;-72
2023/11/13 21:06:43;;;;;;;32.58;9.10;;;;;;;12.02;100.00;99919.34;10377504;28;20045;-72
2023/11/13 21:11:43;;;;;;;32.28;8.82;;;;;;;12.04;100.00;99909.09;10375847;28;20512;-72
2023/11/13 21:16:43;;;;;;;53.70;11.65;;;;;;;12.06;100.00;99917.81;10376480;28;20045;-72
2023/11/13 21:21:45;;;;;;;31.10;8.80;;;;;;;12.04;100.00;99919.94;10375469;28;20388;-71
2023/11/13 21:26:45;;;;;;;26.15;7.65;;;;;;;11.98;100.00;99926.28;10358879;28;20030;-71
2023/11/13 21:31:46;;;;;;;23.15;9.10;;;;;;;11.92;100.00;99924.50;10376089;28;20034;-71
2023/11/13 21:36:47;;;;;;;35.70;8.48;;;;;;;12.00;100.00;99929.59;10375947;28;20236;-71
2023/11/13 21:41:47;;;;;;;23.83;11.88;;;;;;;12.16;100.00;99942.53;10375732;28;20541;-71
2023/11/13 21:46:48;;;;;;;37.80;8.77;;;;;;;12.26;100.00;99931.91;10374918;28;20112;-72
2023/11/13 21:51:48;;;;;;;34.75;10.95;;;;;;;12.34;100.00;99945.13;10359955;28;20042;-71
2023/11/13 21:56:50;;;;;;;25.83;8.20;;;;;;;12.43;100.00;99952.97;10375677;28;20397;-72
2023/11/13 22:01:51;;;;;;;25.70;9.52;;;;;;;12.43;100.00;99942.94;10377335;28;20033;-71
2023/11/13 22:06:54;;;;;;;35.95;8.75;;;;;;;12.47;100.00;99938.69;10375718;28;20034;-71
2023/11/13 22:11:54;;;;;;;30.05;8.75;;;;;;;12.58;100.00;99950.63;10375533;28;20172;-71
2023/11/13 22:16:54;;;;;;;28.38;9.30;;;;;;;12.59;100.00;99957.72;10375833;28;20124;-71
2023/11/13 22:21:55;;;;;;;38.00;10.00;;;;;;;12.62;100.00;99943.66;10374574;28;20133;-71
2023/11/13 22:26:55;;;;;;;29.52;9.60;;;;;;;12.53;100.00;99945.88;10374973;28;20025;-71
2023/11/13 22:31:56;;;;;;;37.45;9.57;;;;;;;12.63;100.00;99952.63;10376153;28;20045;-71
2023/11/13 22:36:56;;;;;;;26.13;8.63;;;;;;;12.66;100.00;99946.75;10375440;28;20136;-71
2023/11/13 22:41:57;;;;;;;24.05;8.88;;;;;;;12.67;100.00;99951.97;10374066;28;20141;-71
2023/11/13 22:46:57;;;;;;;28.58;7.72;;;;;;;12.71;100.00;99927.84;10375406;28;20037;-71